AirNav   Air Wisconsin Up To $57,000 Bonus
 
 468 users online  

92F Chattanooga Sky Harbor Airport
Chattanooga, Oklahoma, USA

GOING TO CHATTANOOGA?


FAA INFORMATION EFFECTIVE 22 APRIL 2021

Location

FAA Identifier: 92F
Lat/Long: 34-22-07.9000N 098-40-55.7000W
34-22.131667N 098-40.928333W
34.3688611,-98.6821389
(estimated)
Elevation: 1135 ft. / 346 m (estimated)
Variation: 07E (1985)
From city: 3 miles SW of CHATTANOOGA, OK
Time zone: UTC -5 (UTC -6 during Standard Time)
Zip code: 73528

Airport Operations

Airport use: Open to the public
Activation date: 11/1948
Control tower: no
ARTCC: FORT WORTH CENTER
FSS: MC ALESTER FLIGHT SERVICE STATION
NOTAMs facility: MLC (NOTAM-D service available)
Attendance: IREG
Wind indicator: lighted
Segmented circle: yes
Lights: SS-SR
Beacon: white-green (lighted land airport)
Operates sunset to sunrise.

Airport Communications

CTAF: 122.9
WX ASOS at FDR (15 nm W): 132.675 (580-335-7591)
WX ASOS at LAW (18 nm NE): 120.75 (580-581-1351)

Nearby radio navigation aids

VOR radial/distance  VOR name  Freq  Var
LAWr231/15.4LAWTON VOR/DME109.4009E
SPSr339/23.3WICHITA FALLS VORTAC112.7010E
LTSr116/34.0ALTUS VORTAC109.8005E
HBRr138/35.3HOBART VORTAC111.8010E

 
NDB name  Hdg/Dist  Freq  Var  ID
SCOTLAND340/36.534405ESKB ... -.- -...

Airport Services

Parking: tiedowns
Airframe service: NONE
Powerplant service: NONE
Bottled oxygen: NONE
Bulk oxygen: NONE

Runway Information

Runway 17/35

Dimensions: 3400 x 60 ft. / 1036 x 18 m
Surface: asphalt, in good condition
Weight bearing capacity: 
Single wheel: 7.0
Runway edge lights: medium intensity
RUNWAY 17  RUNWAY 35
Latitude: 34-22.411285N34-21.850610N
Longitude: 098-40.929260W098-40.928472W
Elevation: 1129.0 ft.1122.0 ft.
Traffic pattern: leftleft
Runway heading: 173 magnetic, 180 true353 magnetic, 360 true
Markings: basic, in good conditionbasic, in good condition

Airport Ownership and Management from official FAA records

Ownership: Publicly-owned
Owner: CITY OF CHATTANOOGA
CITY HALL , 302 3RD ST
CHATTANOOGA, OK 73528
Phone 580-597-3390
Manager: CHAD CHAPPELL
302 3RD ST, 302 3RD ST
CHATTANOOGA, OK 73528
Phone 580-597-3390

Airport Operational Statistics

Aircraft based on the field: 18
Single engine airplanes: 16
Ultralights: 2
    
Aircraft operations: avg 67/week *
60% local general aviation
40% transient general aviation
* for 12-month period ending 12 August 2020

Additional Remarks

ULTRALIGHTS ON AND IN VICINITY OF AIRPORT.
FOR CD CTC FORT WORTH ARTCC AT 817-858-7584.

Instrument Procedures

There are no published instrument procedures at 92F.

Some nearby airports with instrument procedures:

KFDR - Frederick Regional Airport (15 nm W)
KLAW - Lawton-Fort Sill Regional Airport (18 nm NE)
KFSI - Henry Post Army Airfield (Fort Sill) (22 nm NE)
KSPS - Sheppard Air Force Base/Wichita Falls Municipal Airport (25 nm SE)
F14 - Wichita Valley Airport (25 nm S)
 
Loc | Ops | Rwys | IFR | FBO | Links
Com | Nav | Svcs | Stats | Notes
Area around 92F (Chattanooga Sky Harbor Airport)
 
Road maps at: MapQuest Bing Google
 
Aerial photo
WARNING: Photo may not be current or correct
Aerial photo of 92F (Chattanooga Sky Harbor Airport)
Photo by Charles Winters, N68344
Photo taken 26-Sep-2007
taken from 500 feet AGL

Do you have a better or more recent aerial photo of Chattanooga Sky Harbor Airport that you would like to share? If so, please send us your photo.

 
Sectional chart

 
Airport distance calculator
Flying to Chattanooga Sky Harbor Airport? Find the distance to fly.

From to 92F

Sunrise and sunset
Times for 12-May-2021
 Local
(UTC-5)
 Zulu
(UTC)
Morning civil twilight06:0811:08
Sunrise06:3611:36
Sunset20:2601:26
Evening civil twilight20:5401:54

Current date and time
Zulu (UTC)  12-May-2021 06:21:50
Local (UTC-5)  12-May-2021 01:21:50
 
METAR
KFDR 
15nm W 
120553Z AUTO 03010KT 10SM OVC033 12/08 A3020 RMK AO2 SLP220 T01220078 10144 20122 401670106 50010 $
KLAW 
17nm NE 
120553Z AUTO 02010KT 10SM OVC039 12/07 A3022 RMK AO2 SLP233 T01220072 10139 20122 401560111 51013
KFSI 
21nm NE 
120556Z AUTO 02009KT 10SM OVC036 12/08 A3021 RMK AO2 SLP229 T01190080 10131 20114 401640107 51013 $
KSPS 
25nm S 
120552Z 01009KT 10SM OVC014 12/11 A3021 RMK AO2 SLP225 60000 T01170106 10144 20117 401560111 51013 $
TAF
KLAW 
17nm NE 
120520Z 1206/1306 03012KT P6SM BKN025 FM121800 05011KT P6SM SCT030 BKN040
NOTAMs
Click for the latest NOTAMs
NOTAMs are issued by the DoD/FAA and will open in a separate window not controlled by AirNav.

 

 
 

Would you like to see your business listed on this page?

 If your business provides an interesting product or service to pilots, flight crews, aircraft, or users of the Chattanooga Sky Harbor Airport, you should consider listing it here.  To start the listing process, click on the button below
 
Add a business
 

Other Pages about Chattanooga Sky Harbor Airport

Update a link
 
Copyright © AirNav, LLC. All rights reserved. Privacy Policy  Contact